Terminal Aerodrome Forecast
Issued by NWS

Home | Current Version | Previous Version | Text Only | Print | Product List | Glossary On
Versions: 1 2 3 4 5 6 7 8 9 10 11 12 13 14 15 16 17 18 19 20 21 22 23 24 25 26 27 28 29 30 31 32
000
FTUS44 KMAF 011100
TAFCNM
TAF
KCNM 011120Z 0112/0212 35005KT P6SM OVC050
     FM011600 10006KT P6SM SCT040 OVC250
     FM020200 02005KT P6SM FEW035 OVC200
      TEMPO 0202/0206 VRB15G25KT 6SM TSRA BKN030CB=

USA.gov is the U.S. government's official web portal to all federal, state and local government web resources and services.